Time;durP1;ratioP1;P1;durP2;ratioP2;P2;SDS_P1;SDS_P2;PMS_P1;PMS_P2;Temp;Humidity;BMP_temperature;BMP_pressure;BME280_temperature;BME280_humidity;BME280_pressure;Samples;Min_cycle;Max_cycle;Signal;HPM_P1;HPM_P2
2023/09/19 00:00:23;;;;;;;8.55;7.75;;;;;;;;;;5093550;28;20020;-62
2023/09/19 00:03:01;;;;;;;8.40;7.55;;;;;;;;;;5093603;28;20035;-63
2023/09/19 00:05:29;;;;;;;8.65;7.65;;;;;;;;;;5093775;28;20036;-63
2023/09/19 00:07:58;;;;;;;9.57;7.78;;;;;;;;;;5093919;28;20069;-63
2023/09/19 00:10:24;;;;;;;8.65;7.85;;;;;;;;;;5079335;28;20384;-62
2023/09/19 00:12:55;;;;;;;8.55;7.68;;;;;;;;;;5097441;28;20158;-62
2023/09/19 00:15:24;;;;;;;8.77;7.88;;;;;;;;;;5097440;28;20106;-62
2023/09/19 00:17:52;;;;;;;8.10;7.32;;;;;;;;;;5079228;28;20020;-62
2023/09/19 00:20:18;;;;;;;10.07;7.90;;;;;;;;;;5097302;28;20465;-64
2023/09/19 00:22:43;;;;;;;8.18;7.40;;;;;;;;;;5097276;28;20035;-65
2023/09/19 00:25:11;;;;;;;9.63;8.02;;;;;;;;;;5097111;28;20048;-65
2023/09/19 00:27:43;;;;;;;8.02;7.30;;;;;;;;;;5097285;28;20028;-65
2023/09/19 00:30:21;;;;;;;8.95;8.05;;;;;;;;;;5062414;28;20039;-65
2023/09/19 00:32:47;;;;;;;9.05;7.80;;;;;;;;;;5078836;28;20038;-62
2023/09/19 00:35:13;;;;;;;9.73;7.57;;;;;;;;;;5097178;28;20099;-62
2023/09/19 00:37:39;;;;;;;10.02;7.60;;;;;;;;;;5097166;28;20032;-67
2023/09/19 00:40:15;;;;;;;8.68;7.78;;;;;;;;;;5078816;28;20384;-67
2023/09/19 00:42:41;;;;;;;8.43;7.55;;;;;;;;;;5096955;28;20035;-67
2023/09/19 00:45:09;;;;;;;8.90;7.60;;;;;;;;;;5096794;28;20036;-67
2023/09/19 00:47:35;;;;;;;12.90;7.93;;;;;;;;;;5096885;28;20059;-68
2023/09/19 00:50:00;;;;;;;8.82;7.75;;;;;;;;;;5078568;28;20425;-68
2023/09/19 00:52:27;;;;;;;9.18;7.78;;;;;;;;;;5078416;28;20036;-65
2023/09/19 00:54:52;;;;;;;8.85;7.63;;;;;;;;;;5078505;28;20122;-65
2023/09/19 00:57:19;;;;;;;9.95;7.25;;;;;;;;;;5096679;28;20020;-65
2023/09/19 00:59:48;;;;;;;8.52;7.72;;;;;;;;;;5078610;28;20026;-65
2023/09/19 01:02:14;;;;;;;8.05;7.35;;;;;;;;;;5078357;28;20028;-67
2023/09/19 01:04:40;;;;;;;8.52;7.72;;;;;;;;;;5078380;28;20063;-67
2023/09/19 01:07:06;;;;;;;10.55;8.10;;;;;;;;;;5096474;28;20036;-67
2023/09/19 01:09:31;;;;;;;9.20;7.35;;;;;;;;;;5096353;28;20039;-66
2023/09/19 01:11:59;;;;;;;7.68;6.80;;;;;;;;;;5078168;28;20495;-63
2023/09/19 01:14:36;;;;;;;8.98;7.57;;;;;;;;;;5078158;28;20380;-64
2023/09/19 01:17:31;;;;;;;8.45;7.50;;;;;;;;;;5096332;28;20024;-64
2023/09/19 01:20:12;;;;;;;8.55;7.75;;;;;;;;;;5064706;28;20126;-66
2023/09/19 01:23:03;;;;;;;9.18;7.35;;;;;;;;;;5096213;28;20051;-64
2023/09/19 01:25:51;;;;;;;8.02;7.22;;;;;;;;;;5006424;28;20182;-64
2023/09/19 01:28:40;;;;;;;9.40;7.53;;;;;;;;;;5003428;28;20442;-65
2023/09/19 01:31:09;;;;;;;8.88;7.97;;;;;;;;;;5040993;28;20031;-63
2023/09/19 01:34:04;;;;;;;9.20;8.05;;;;;;;;;;4974063;28;20038;-64
2023/09/19 01:36:34;;;;;;;10.05;7.85;;;;;;;;;;5031794;28;20042;-64
2023/09/19 01:39:05;;;;;;;8.30;7.45;;;;;;;;;;4973855;28;20029;-64
2023/09/19 01:41:41;;;;;;;8.45;7.65;;;;;;;;;;5040873;28;20034;-63
2023/09/19 01:44:11;;;;;;;9.27;7.75;;;;;;;;;;4974181;28;20377;-62
2023/09/19 01:46:40;;;;;;;8.57;7.88;;;;;;;;;;5040608;28;20122;-64
2023/09/19 01:49:15;;;;;;;11.07;7.37;;;;;;;;;;5023972;28;20035;-66
2023/09/19 01:51:46;;;;;;;8.65;7.85;;;;;;;;;;4973628;28;20035;-66
2023/09/19 01:54:12;;;;;;;9.52;8.32;;;;;;;;;;5040470;28;20552;-67
2023/09/19 01:56:42;;;;;;;8.68;7.88;;;;;;;;;;4973638;28;20065;-67
2023/09/19 01:59:10;;;;;;;8.65;7.90;;;;;;;;;;5040494;28;20035;-64
2023/09/19 02:01:37;;;;;;;9.10;8.23;;;;;;;;;;5040247;28;20062;-65
2023/09/19 02:04:02;;;;;;;8.95;8.05;;;;;;;;;;4973408;28;20035;-65
2023/09/19 02:06:29;;;;;;;9.57;8.65;;;;;;;;;;5039477;28;20051;-65
2023/09/19 02:08:55;;;;;;;9.23;8.18;;;;;;;;;;5040128;28;20070;-65
2023/09/19 02:11:20;;;;;;;8.40;7.70;;;;;;;;;;4973228;28;20035;-65
2023/09/19 02:13:47;;;;;;;8.52;7.72;;;;;;;;;;5040058;28;20377;-66
2023/09/19 02:16:12;;;;;;;8.27;7.47;;;;;;;;;;5040291;28;20536;-65
2023/09/19 02:18:39;;;;;;;8.57;7.45;;;;;;;;;;4973472;28;20054;-65
2023/09/19 02:21:06;;;;;;;7.97;7.18;;;;;;;;;;4973331;28;20026;-66
2023/09/19 02:23:32;;;;;;;8.35;7.55;;;;;;;;;;5001396;28;20106;-65
2023/09/19 02:25:58;;;;;;;8.48;7.50;;;;;;;;;;5095226;28;20047;-66
2023/09/19 02:28:23;;;;;;;8.85;8.15;;;;;;;;;;5094898;28;20099;-65
2023/09/19 02:30:49;;;;;;;9.60;7.50;;;;;;;;;;5076868;28;20486;-66
2023/09/19 02:33:15;;;;;;;8.32;7.38;;;;;;;;;;5075819;28;20043;-66
2023/09/19 02:35:41;;;;;;;8.73;7.38;;;;;;;;;;5076573;28;20123;-66
2023/09/19 02:38:11;;;;;;;8.18;7.43;;;;;;;;;;5094780;28;20023;-66
2023/09/19 02:40:36;;;;;;;;;;;;;;;;;;5076909;28;20397;-66
2023/09/19 02:43:02;;;;;;;9.77;6.95;;;;;;;;;;5094973;28;19924;-67
2023/09/19 02:45:27;;;;;;;8.20;7.40;;;;;;;;;;5076399;28;20484;-65
2023/09/19 02:47:54;;;;;;;8.23;7.40;;;;;;;;;;5094486;28;20477;-65
2023/09/19 02:50:20;;;;;;;8.93;7.57;;;;;;;;;;5094489;28;20039;-66
2023/09/19 02:52:49;;;;;;;17.70;8.35;;;;;;;;;;5076444;28;20035;-68
2023/09/19 02:55:17;;;;;;;9.20;7.60;;;;;;;;;;5076302;28;20028;-67
2023/09/19 02:57:49;;;;;;;8.57;7.60;;;;;;;;;;5076394;28;20032;-66
2023/09/19 03:00:16;;;;;;;10.05;7.50;;;;;;;;;;5076188;28;20032;-64
2023/09/19 03:02:42;;;;;;;7.75;6.95;;;;;;;;;;5076821;28;20032;-66
2023/09/19 03:05:11;;;;;;;8.73;7.93;;;;;;;;;;5076166;28;20066;-63
2023/09/19 03:07:38;;;;;;;9.07;7.53;;;;;;;;;;5076133;28;20416;-66
2023/09/19 03:10:05;;;;;;;9.70;7.72;;;;;;;;;;5076039;28;20040;-67
2023/09/19 03:12:31;;;;;;;8.48;7.57;;;;;;;;;;5075981;28;20032;-67
2023/09/19 03:14:59;;;;;;;8.98;8.10;;;;;;;;;;5076113;28;20164;-66
2023/09/19 03:17:25;;;;;;;11.82;8.13;;;;;;;;;;5059286;28;20032;-66
2023/09/19 03:19:50;;;;;;;8.32;7.53;;;;;;;;;;5076118;28;20028;-66
2023/09/19 03:22:18;;;;;;;9.63;7.65;;;;;;;;;;5094178;28;20035;-69
2023/09/19 03:24:44;;;;;;;14.05;7.78;;;;;;;;;;5075454;28;20040;-68
2023/09/19 03:27:10;;;;;;;8.15;7.32;;;;;;;;;;5075916;28;20028;-69
2023/09/19 03:29:36;;;;;;;9.80;8.40;;;;;;;;;;5059106;28;20020;-70
2023/09/19 03:32:03;;;;;;;8.65;7.85;;;;;;;;;;5075763;28;20048;-67
2023/09/19 03:34:29;;;;;;;8.98;7.25;;;;;;;;;;5059556;28;20061;-67
2023/09/19 03:36:55;;;;;;;8.93;8.05;;;;;;;;;;5076109;28;20421;-67
2023/09/19 03:39:21;;;;;;;7.55;6.78;;;;;;;;;;5075626;28;20053;-67
2023/09/19 03:41:46;;;;;;;7.03;6.20;;;;;;;;;;5075638;28;20032;-64
2023/09/19 03:44:12;;;;;;;9.02;7.20;;;;;;;;;;5058745;28;20413;-65
2023/09/19 03:46:38;;;;;;;8.05;6.82;;;;;;;;;;5075686;28;20503;-65
2023/09/19 03:49:04;;;;;;;7.25;6.53;;;;;;;;;;5075636;28;20028;-65
2023/09/19 03:51:29;;;;;;;8.02;7.25;;;;;;;;;;5075172;28;20028;-64
2023/09/19 03:53:55;;;;;;;7.40;6.70;;;;;;;;;;5075561;28;20054;-64
2023/09/19 03:56:20;;;;;;;7.90;6.47;;;;;;;;;;5073747;28;20047;-64
2023/09/19 03:58:45;;;;;;;9.80;7.00;;;;;;;;;;5092008;28;20059;-66
2023/09/19 04:01:13;;;;;;;7.93;6.88;;;;;;;;;;5092978;28;20061;-62
2023/09/19 04:03:47;;;;;;;7.50;6.85;;;;;;;;;;5058927;28;20038;-62
2023/09/19 04:06:13;;;;;;;7.47;6.78;;;;;;;;;;5093627;28;20067;-62
2023/09/19 04:08:39;;;;;;;9.65;6.57;;;;;;;;;;5075538;28;20458;-61
2023/09/19 04:11:04;;;;;;;9.23;6.82;;;;;;;;;;5075036;28;20024;-60
2023/09/19 04:13:30;;;;;;;10.45;7.05;;;;;;;;;;5093701;28;20111;-61
2023/09/19 04:15:55;;;;;;;8.52;6.65;;;;;;;;;;5093850;28;20362;-60
2023/09/19 04:18:23;;;;;;;7.38;6.63;;;;;;;;;;5075446;28;20027;-60
2023/09/19 04:20:49;;;;;;;7.65;6.80;;;;;;;;;;5075529;28;20021;-60
2023/09/19 04:23:14;;;;;;;8.13;7.28;;;;;;;;;;5075227;28;20028;-57
2023/09/19 04:25:40;;;;;;;8.35;7.18;;;;;;;;;;5094004;28;20028;-58
2023/09/19 04:28:06;;;;;;;8.85;7.38;;;;;;;;;;5075402;28;20036;-62
2023/09/19 04:30:31;;;;;;;8.48;7.63;;;;;;;;;;5075011;28;20024;-59
2023/09/19 04:32:57;;;;;;;9.50;8.55;;;;;;;;;;5075508;28;20036;-59
2023/09/19 04:35:22;;;;;;;8.15;7.38;;;;;;;;;;5093481;28;20031;-59
2023/09/19 04:37:48;;;;;;;8.93;8.05;;;;;;;;;;5093449;28;20029;-59
2023/09/19 04:40:19;;;;;;;9.13;7.78;;;;;;;;;;5075573;28;20032;-59
2023/09/19 04:42:45;;;;;;;10.77;8.27;;;;;;;;;;5074758;28;20034;-59
2023/09/19 04:45:11;;;;;;;8.60;7.75;;;;;;;;;;5074472;28;20024;-59
2023/09/19 04:47:38;;;;;;;9.63;7.90;;;;;;;;;;5091851;28;20109;-60
2023/09/19 04:50:08;;;;;;;8.85;8.05;;;;;;;;;;5091993;28;20036;-59
2023/09/19 04:52:33;;;;;;;9.33;7.40;;;;;;;;;;5092317;28;20127;-59
2023/09/19 04:54:59;;;;;;;15.32;9.63;;;;;;;;;;5075160;28;20110;-59
2023/09/19 04:57:25;;;;;;;9.93;8.32;;;;;;;;;;5096357;28;20028;-59
2023/09/19 04:59:51;;;;;;;10.02;7.97;;;;;;;;;;5096418;28;20024;-59
2023/09/19 05:02:16;;;;;;;10.20;8.30;;;;;;;;;;5096216;28;20028;-60
2023/09/19 05:04:42;;;;;;;10.05;8.35;;;;;;;;;;5096095;28;20027;-60
2023/09/19 05:07:07;;;;;;;11.57;9.18;;;;;;;;;;5096490;28;20427;-60
2023/09/19 05:09:34;;;;;;;9.88;8.35;;;;;;;;;;5077077;28;20046;-60
2023/09/19 05:12:00;;;;;;;9.40;8.40;;;;;;;;;;5096109;28;20044;-59
2023/09/19 05:14:25;;;;;;;10.02;9.02;;;;;;;;;;5095993;28;20512;-59
2023/09/19 05:16:50;;;;;;;11.65;9.60;;;;;;;;;;5089250;28;20061;-59
2023/09/19 05:19:16;;;;;;;9.20;8.10;;;;;;;;;;5077820;28;20466;-60
2023/09/19 05:21:42;;;;;;;9.50;8.50;;;;;;;;;;5076934;28;20032;-60
2023/09/19 05:24:07;;;;;;;11.95;10.40;;;;;;;;;;5050924;28;20129;-57
2023/09/19 05:26:33;;;;;;;10.80;9.70;;;;;;;;;;4973077;28;20037;-58
2023/09/19 05:28:58;;;;;;;13.23;10.15;;;;;;;;;;4959984;28;20540;-58
2023/09/19 05:31:25;;;;;;;11.00;9.75;;;;;;;;;;4973040;28;20026;-59
2023/09/19 05:33:51;;;;;;;11.23;10.05;;;;;;;;;;4972633;28;20062;-64
2023/09/19 05:36:16;;;;;;;12.40;8.98;;;;;;;;;;4974202;28;20054;-63
2023/09/19 05:38:42;;;;;;;14.10;10.18;;;;;;;;;;4973947;28;20469;-63
2023/09/19 05:41:09;;;;;;;12.60;10.73;;;;;;;;;;4972469;28;20370;-63
2023/09/19 05:43:37;;;;;;;12.10;9.70;;;;;;;;;;4971635;28;20153;-63
2023/09/19 05:46:02;;;;;;;13.80;10.45;;;;;;;;;;4971116;28;20125;-63
2023/09/19 05:48:28;;;;;;;11.90;9.63;;;;;;;;;;4971012;28;20106;-63
2023/09/19 05:50:53;;;;;;;11.63;10.25;;;;;;;;;;4971264;28;20046;-63
2023/09/19 05:53:18;;;;;;;11.10;9.98;;;;;;;;;;4972799;28;20046;-63
2023/09/19 05:55:44;;;;;;;11.68;10.50;;;;;;;;;;4973003;28;20022;-63
2023/09/19 05:58:10;;;;;;;10.63;9.60;;;;;;;;;;4971949;28;20023;-63
2023/09/19 06:00:36;;;;;;;11.95;10.73;;;;;;;;;;4973174;28;20491;-63
2023/09/19 06:03:02;;;;;;;11.23;10.07;;;;;;;;;;4971976;28;20030;-63
2023/09/19 06:05:27;;;;;;;12.68;10.82;;;;;;;;;;4973200;28;20391;-63
2023/09/19 06:07:53;;;;;;;12.68;11.20;;;;;;;;;;4972986;28;20050;-63
2023/09/19 06:10:20;;;;;;;11.23;10.20;;;;;;;;;;4973045;28;20130;-63
2023/09/19 06:12:46;;;;;;;10.82;9.18;;;;;;;;;;4971761;28;20033;-62
2023/09/19 06:15:22;;;;;;;10.70;8.50;;;;;;;;;;4973044;28;20436;-63
2023/09/19 06:17:48;;;;;;;10.13;8.23;;;;;;;;;;4973018;28;20035;-62
2023/09/19 06:20:14;;;;;;;10.98;9.23;;;;;;;;;;4972852;28;20027;-62
2023/09/19 06:22:43;;;;;;;12.48;10.20;;;;;;;;;;4972663;28;20038;-64
2023/09/19 06:25:12;;;;;;;12.38;11.02;;;;;;;;;;5092889;28;20047;-62
2023/09/19 06:27:42;;;;;;;12.30;11.10;;;;;;;;;;5094668;28;20414;-67
2023/09/19 06:30:08;;;;;;;12.23;11.00;;;;;;;;;;5075764;22;20055;-63
2023/09/19 06:32:33;;;;;;;12.40;11.10;;;;;;;;;;4972648;28;20795;-62
2023/09/19 06:34:59;;;;;;;12.98;11.75;;;;;;;;;;5039119;28;20031;-62
2023/09/19 06:37:27;;;;;;;12.55;11.23;;;;;;;;;;4972707;28;20126;-62
2023/09/19 06:39:53;;;;;;;16.02;12.25;;;;;;;;;;4972646;28;20027;-62
2023/09/19 06:42:18;;;;;;;11.27;10.15;;;;;;;;;;4972575;28;20042;-62
2023/09/19 06:44:43;;;;;;;13.27;11.90;;;;;;;;;;5039532;28;20041;-62
2023/09/19 06:47:10;;;;;;;13.82;12.45;;;;;;;;;;4972572;28;20034;-62
2023/09/19 06:49:36;;;;;;;13.90;12.48;;;;;;;;;;4972517;28;20392;-62
2023/09/19 06:52:03;;;;;;;14.55;11.18;;;;;;;;;;4972430;28;20046;-62
2023/09/19 06:54:31;;;;;;;14.93;13.30;;;;;;;;;;5039175;28;20494;-62
2023/09/19 06:56:59;;;;;;;15.73;13.00;;;;;;;;;;5039186;28;20033;-62
2023/09/19 06:59:25;;;;;;;14.75;13.25;;;;;;;;;;4972372;28;20038;-62
2023/09/19 07:01:51;;;;;;;15.35;13.75;;;;;;;;;;4972352;28;20445;-62
2023/09/19 07:04:19;;;;;;;16.17;14.10;;;;;;;;;;5038698;28;20472;-62
2023/09/19 07:06:49;;;;;;;16.33;14.00;;;;;;;;;;4972282;28;20117;-62
2023/09/19 07:09:16;;;;;;;15.43;13.60;;;;;;;;;;4972222;28;20088;-62
2023/09/19 07:11:42;;;;;;;14.77;13.35;;;;;;;;;;4972191;28;20035;-62
2023/09/19 07:14:08;;;;;;;17.50;14.27;;;;;;;;;;4972184;28;20044;-62
2023/09/19 07:16:33;;;;;;;16.60;14.30;;;;;;;;;;5038836;28;20038;-62
2023/09/19 07:18:59;;;;;;;16.63;13.70;;;;;;;;;;4971413;28;20098;-62
2023/09/19 07:21:24;;;;;;;15.93;13.65;;;;;;;;;;4972153;28;20031;-62
2023/09/19 07:23:50;;;;;;;15.38;12.18;;;;;;;;;;5038486;28;20056;-62
2023/09/19 07:26:16;;;;;;;14.73;13.25;;;;;;;;;;4971940;28;20046;-62
2023/09/19 07:28:41;;;;;;;17.77;14.05;;;;;;;;;;4971967;28;20031;-62
2023/09/19 07:31:09;;;;;;;16.02;13.40;;;;;;;;;;4971728;28;20053;-62
2023/09/19 07:33:35;;;;;;;15.85;12.75;;;;;;;;;;4971878;28;20039;-62
2023/09/19 07:36:01;;;;;;;15.93;14.05;;;;;;;;;;4971912;28;20037;-62
2023/09/19 07:38:26;;;;;;;14.88;12.93;;;;;;;;;;5038549;28;20109;-62
2023/09/19 07:40:52;;;;;;;13.18;11.82;;;;;;;;;;4971792;28;20031;-62
2023/09/19 07:43:17;;;;;;;13.23;11.93;;;;;;;;;;4972044;28;20031;-62
2023/09/19 07:45:43;;;;;;;15.02;12.07;;;;;;;;;;4971838;28;20026;-62
2023/09/19 07:48:14;;;;;;;13.27;11.05;;;;;;;;;;4971668;28;20465;-62
2023/09/19 07:50:40;;;;;;;12.68;11.48;;;;;;;;;;4971620;28;20044;-62
2023/09/19 07:53:05;;;;;;;15.82;12.80;;;;;;;;;;5038407;28;20031;-62
2023/09/19 07:55:33;;;;;;;12.98;11.30;;;;;;;;;;4971630;28;20080;-62
2023/09/19 07:57:59;;;;;;;14.07;11.68;;;;;;;;;;4971590;28;20042;-62
2023/09/19 08:00:24;;;;;;;12.90;11.60;;;;;;;;;;5038003;28;20031;-62
2023/09/19 08:02:51;;;;;;;12.77;10.77;;;;;;;;;;5038137;28;20027;-62
2023/09/19 08:05:17;;;;;;;15.07;12.68;;;;;;;;;;4971418;28;20465;-62
2023/09/19 08:07:43;;;;;;;14.40;12.38;;;;;;;;;;4971487;28;20030;-62
2023/09/19 08:10:13;;;;;;;11.27;10.15;;;;;;;;;;5037866;28;20031;-62
2023/09/19 08:12:46;;;;;;;13.82;10.90;;;;;;;;;;4971348;28;20042;-62
2023/09/19 08:15:11;;;;;;;11.35;10.13;;;;;;;;;;4971406;28;20038;-62
2023/09/19 08:17:36;;;;;;;12.02;10.02;;;;;;;;;;4971257;28;20034;-62
2023/09/19 08:20:04;;;;;;;10.45;9.48;;;;;;;;;;4971363;28;20034;-62
2023/09/19 08:22:30;;;;;;;11.77;10.02;;;;;;;;;;5037807;28;20038;-62
2023/09/19 08:24:56;;;;;;;12.85;10.30;;;;;;;;;;4971197;28;20042;-62
2023/09/19 08:27:22;;;;;;;10.52;9.45;;;;;;;;;;5037990;28;20031;-62
2023/09/19 08:29:47;;;;;;;13.20;9.80;;;;;;;;;;4971436;28;20483;-62
2023/09/19 08:32:12;;;;;;;11.48;9.98;;;;;;;;;;4974372;28;20038;-62
2023/09/19 08:34:38;;;;;;;11.52;10.25;;;;;;;;;;4974555;28;20034;-62
2023/09/19 08:37:03;;;;;;;14.07;11.75;;;;;;;;;;5041593;28;20110;-62
2023/09/19 08:39:30;;;;;;;10.90;9.57;;;;;;;;;;5041557;28;20043;-62
2023/09/19 08:42:00;;;;;;;11.95;9.60;;;;;;;;;;4974440;28;20057;-62
2023/09/19 08:44:25;;;;;;;13.18;10.68;;;;;;;;;;4974419;28;20030;-62
2023/09/19 08:46:54;;;;;;;12.35;9.13;;;;;;;;;;4974340;28;20038;-62
2023/09/19 08:49:25;;;;;;;10.95;9.85;;;;;;;;;;4974314;28;20537;-62
2023/09/19 08:51:55;;;;;;;11.52;8.65;;;;;;;;;;4974203;28;20046;-62
2023/09/19 08:54:32;;;;;;;11.38;8.95;;;;;;;;;;4974303;28;20084;-62
2023/09/19 08:57:02;;;;;;;9.80;8.82;;;;;;;;;;5041323;28;20031;-62
2023/09/19 08:59:29;;;;;;;10.00;8.93;;;;;;;;;;4974196;28;20034;-62
2023/09/19 09:01:55;;;;;;;9.52;8.52;;;;;;;;;;4974110;28;20037;-62
2023/09/19 09:04:22;;;;;;;11.52;9.93;;;;;;;;;;4974123;28;20092;-62
2023/09/19 09:06:50;;;;;;;11.25;8.90;;;;;;;;;;4974053;28;20045;-62
2023/09/19 09:09:17;;;;;;;12.23;9.13;;;;;;;;;;4974217;28;20053;-62
2023/09/19 09:11:42;;;;;;;16.00;9.40;;;;;;;;;;4973959;28;20042;-62
2023/09/19 09:14:07;;;;;;;13.10;9.35;;;;;;;;;;4973994;28;20023;-62
2023/09/19 09:16:33;;;;;;;10.98;8.48;;;;;;;;;;5040858;28;20034;-62
2023/09/19 09:18:58;;;;;;;9.32;7.43;;;;;;;;;;4973864;28;20033;-62
2023/09/19 09:21:25;;;;;;;8.30;6.03;;;;;;;;;;5040860;28;20026;-62
2023/09/19 09:23:51;;;;;;;6.18;5.55;;;;;;;;;;5040707;28;20511;-67
2023/09/19 09:26:18;;;;;;;6.13;5.53;;;;;;;;;;4973746;28;20031;-62
2023/09/19 09:28:48;;;;;;;6.70;5.53;;;;;;;;;;5040638;28;20027;-62
2023/09/19 09:31:23;;;;;;;8.05;4.97;;;;;;;;;;5040479;28;20409;-62
2023/09/19 09:33:55;;;;;;;5.30;4.88;;;;;;;;;;4973692;28;20426;-62
2023/09/19 09:36:37;;;;;;;6.07;4.57;;;;;;;;;;4973670;28;20053;-62
2023/09/19 09:39:24;;;;;;;5.97;4.28;;;;;;;;;;5040674;28;20054;-62
2023/09/19 09:41:50;;;;;;;6.22;5.28;;;;;;;;;;5039891;28;20078;-62
2023/09/19 09:44:17;;;;;;;5.18;4.43;;;;;;;;;;4973496;28;20062;-62
2023/09/19 09:52:07;;;;;;;6.00;4.60;;;;;;;;;;4973239;28;20499;-62
2023/09/19 09:54:41;;;;;;;6.68;4.25;;;;;;;;;;4973423;28;20065;-62
2023/09/19 09:57:13;;;;;;;6.20;4.57;;;;;;;;;;4973337;28;20148;-62
2023/09/19 09:59:49;;;;;;;4.75;4.35;;;;;;;;;;5039889;28;20023;-62
2023/09/19 10:02:24;;;;;;;6.00;4.75;;;;;;;;;;4973207;28;20035;-62
2023/09/19 10:05:06;;;;;;;6.63;4.32;;;;;;;;;;4973218;28;20046;-62
2023/09/19 10:07:32;;;;;;;5.00;4.35;;;;;;;;;;4973169;28;20035;-62
2023/09/19 10:10:06;;;;;;;4.32;3.92;;;;;;;;;;4973071;28;20034;-62
2023/09/19 10:12:35;;;;;;;5.93;4.47;;;;;;;;;;4973021;28;20035;-62
2023/09/19 10:15:02;;;;;;;4.90;4.32;;;;;;;;;;4973084;28;20031;-62
2023/09/19 10:17:30;;;;;;;4.88;4.45;;;;;;;;;;4972969;28;20037;-62
2023/09/19 10:19:58;;;;;;;7.35;4.25;;;;;;;;;;4972897;28;20031;-62
2023/09/19 10:22:26;;;;;;;5.60;4.40;;;;;;;;;;4972952;28;20084;-62
2023/09/19 10:24:53;;;;;;;4.38;4.00;;;;;;;;;;5039539;28;20431;-62
2023/09/19 10:27:20;;;;;;;4.75;4.28;;;;;;;;;;4972799;28;20034;-62
2023/09/19 10:29:49;;;;;;;4.80;4.32;;;;;;;;;;4972835;28;20080;-62
2023/09/19 10:32:18;;;;;;;5.07;4.32;;;;;;;;;;4972725;28;20054;-62
2023/09/19 10:34:46;;;;;;;5.50;4.40;;;;;;;;;;4972727;28;20026;-62
2023/09/19 10:37:12;;;;;;;5.88;4.15;;;;;;;;;;4972709;28;20034;-62
2023/09/19 10:39:40;;;;;;;4.80;3.90;;;;;;;;;;4972601;28;20034;-62
2023/09/19 10:42:06;;;;;;;3.97;3.65;;;;;;;;;;4972635;28;20070;-62
2023/09/19 10:44:32;;;;;;;3.90;3.47;;;;;;;;;;4972589;28;20050;-62
2023/09/19 10:46:59;;;;;;;5.20;3.60;;;;;;;;;;4972522;28;20070;-62
2023/09/19 10:49:24;;;;;;;3.65;3.22;;;;;;;;;;4972567;28;20110;-62
2023/09/19 10:51:54;;;;;;;6.18;3.85;;;;;;;;;;4972394;28;20536;-62
2023/09/19 10:54:26;;;;;;;3.95;3.55;;;;;;;;;;4971617;28;20027;-62
2023/09/19 10:56:52;;;;;;;4.53;3.55;;;;;;;;;;4972464;28;20027;-62
2023/09/19 10:59:20;;;;;;;4.15;3.30;;;;;;;;;;4972622;28;20027;-62
2023/09/19 11:01:53;;;;;;;4.53;3.15;;;;;;;;;;4972400;28;20015;-62
2023/09/19 11:04:31;;;;;;;3.88;3.58;;;;;;;;;;4972604;28;20030;-62
2023/09/19 11:07:03;;;;;;;4.18;3.22;;;;;;;;;;4972244;28;20035;-62
2023/09/19 11:09:47;;;;;;;7.68;3.90;;;;;;;;;;4972303;28;20074;-62
2023/09/19 11:12:40;;;;;;;5.35;4.05;;;;;;;;;;4972157;28;20023;-62
2023/09/19 11:15:10;;;;;;;5.53;4.35;;;;;;;;;;5038671;28;20042;-62
2023/09/19 11:17:42;;;;;;;7.30;4.38;;;;;;;;;;4972125;28;20027;-62
2023/09/19 11:22:53;;;;;;;5.88;4.18;;;;;;;;;;4971998;28;20035;-62
2023/09/19 11:25:30;;;;;;;7.97;4.47;;;;;;;;;;4971980;28;20034;-62
2023/09/19 11:30:46;;;;;;;8.38;4.80;;;;;;;;;;4971837;28;20088;-62
2023/09/19 11:33:21;;;;;;;4.18;3.85;;;;;;;;;;4971923;28;20037;-62
2023/09/19 11:36:02;;;;;;;6.57;4.18;;;;;;;;;;5038391;28;20039;-62
2023/09/19 11:38:49;;;;;;;6.10;4.80;;;;;;;;;;4971884;28;20023;-62
2023/09/19 11:41:21;;;;;;;4.20;3.83;;;;;;;;;;5021890;28;20026;-62
2023/09/19 11:44:06;;;;;;;5.22;4.18;;;;;;;;;;4971770;28;20023;-62
2023/09/19 11:46:50;;;;;;;5.22;3.65;;;;;;;;;;5027744;28;20042;-62
2023/09/19 11:49:20;;;;;;;4.93;4.03;;;;;;;;;;4971724;28;20039;-62
2023/09/19 11:51:47;;;;;;;4.03;3.67;;;;;;;;;;4971589;28;20472;-62
2023/09/19 11:54:17;;;;;;;5.47;4.25;;;;;;;;;;4971642;28;20027;-62
2023/09/19 11:56:43;;;;;;;;;;;;;;;;;;4972081;28;20027;-62
2023/09/19 11:59:08;;;;;;;3.97;3.67;;;;;;;;;;4971626;28;20252;-62
2023/09/19 12:01:34;;;;;;;5.28;4.43;;;;;;;;;;4971579;28;20683;-62
2023/09/19 12:04:01;;;;;;;5.53;3.85;;;;;;;;;;5038615;28;20038;-62
2023/09/19 12:06:35;;;;;;;4.95;4.07;;;;;;;;;;5042188;28;20038;-62
2023/09/19 12:09:06;;;;;;;4.32;3.65;;;;;;;;;;4974924;28;20123;-62
2023/09/19 12:11:35;;;;;;;3.75;3.45;;;;;;;;;;4974859;28;20030;-62
2023/09/19 12:14:01;;;;;;;3.85;2.75;;;;;;;;;;4974880;28;20039;-62
2023/09/19 12:16:30;;;;;;;4.10;3.00;;;;;;;;;;4974851;28;20157;-62
2023/09/19 12:18:57;;;;;;;2.97;2.53;;;;;;;;;;4974695;28;20034;-62
2023/09/19 12:21:27;;;;;;;2.45;2.35;;;;;;;;;;4974856;28;20066;-66
2023/09/19 12:24:13;;;;;;;2.60;2.40;;;;;;;;;;5041761;28;20145;-62
2023/09/19 12:26:47;;;;;;;2.47;2.28;;;;;;;;;;4974997;28;20376;-62
2023/09/19 12:29:20;;;;;;;3.92;2.40;;;;;;;;;;4974653;28;20038;-62
2023/09/19 12:31:57;;;;;;;3.17;2.15;;;;;;;;;;4974440;28;20130;-62
2023/09/19 12:34:29;;;;;;;6.00;2.72;;;;;;;;;;4974623;28;20035;-62
2023/09/19 12:37:03;;;;;;;2.40;2.20;;;;;;;;;;4974557;28;20019;-62
2023/09/19 12:39:29;;;;;;;2.50;2.30;;;;;;;;;;4974488;28;20034;-62
2023/09/19 12:41:55;;;;;;;5.30;2.28;;;;;;;;;;4974481;28;20387;-62
2023/09/19 12:44:20;;;;;;;2.50;2.30;;;;;;;;;;4974417;28;20045;-62
2023/09/19 12:46:46;;;;;;;3.00;2.55;;;;;;;;;;4974384;28;20031;-62
2023/09/19 12:49:18;;;;;;;3.50;2.83;;;;;;;;;;4974384;28;20039;-62
2023/09/19 12:51:45;;;;;;;2.90;2.60;;;;;;;;;;5041478;28;20164;-62
2023/09/19 12:54:11;;;;;;;3.70;2.75;;;;;;;;;;4974308;28;20144;-62
2023/09/19 12:56:48;;;;;;;2.63;2.42;;;;;;;;;;5041316;28;20342;-62
2023/09/19 12:59:14;;;;;;;2.97;2.38;;;;;;;;;;4974193;28;20034;-62
2023/09/19 13:01:46;;;;;;;2.88;2.63;;;;;;;;;;4974143;28;20034;-62
2023/09/19 13:04:18;;;;;;;2.38;2.17;;;;;;;;;;5041214;28;20034;-62
2023/09/19 13:06:44;;;;;;;2.65;2.45;;;;;;;;;;4974121;28;20041;-62
2023/09/19 13:09:10;;;;;;;2.53;2.30;;;;;;;;;;4974226;28;20483;-62
2023/09/19 13:11:40;;;;;;;3.17;2.85;;;;;;;;;;5050528;28;20028;-62
2023/09/19 13:14:25;;;;;;;3.08;2.78;;;;;;;;;;5004632;28;20064;-62
2023/09/19 13:16:56;;;;;;;2.95;2.67;;;;;;;;;;5018099;28;20048;-67
2023/09/19 13:19:41;;;;;;;3.05;2.30;;;;;;;;;;5033853;28;20678;-67
2023/09/19 13:22:26;;;;;;;3.05;2.78;;;;;;;;;;4999256;28;20396;-67
2023/09/19 13:24:52;;;;;;;3.05;2.70;;;;;;;;;;5075269;28;20025;-67
2023/09/19 13:27:18;;;;;;;3.10;2.53;;;;;;;;;;5075320;28;20099;-67
2023/09/19 13:29:43;;;;;;;3.30;2.50;;;;;;;;;;5074709;28;20497;-67
2023/09/19 13:32:11;;;;;;;2.92;2.60;;;;;;;;;;5074845;28;20041;-67
2023/09/19 13:34:37;;;;;;;3.05;2.75;;;;;;;;;;5057046;28;20386;-67
2023/09/19 13:37:04;;;;;;;4.40;2.58;;;;;;;;;;5075086;28;20385;-67
2023/09/19 13:39:29;;;;;;;3.67;2.90;;;;;;;;;;5043948;28;20098;-67
2023/09/19 13:41:55;;;;;;;2.85;2.58;;;;;;;;;;5028077;28;20060;-67
2023/09/19 13:44:20;;;;;;;3.13;2.92;;;;;;;;;;5031562;28;20026;-67
2023/09/19 13:46:46;;;;;;;3.92;2.65;;;;;;;;;;5016381;28;20545;-67
2023/09/19 13:49:11;;;;;;;3.45;2.95;;;;;;;;;;5020053;28;20034;-67
2023/09/19 13:51:37;;;;;;;4.15;2.78;;;;;;;;;;5044693;28;20056;-67
2023/09/19 13:54:02;;;;;;;3.40;3.10;;;;;;;;;;5038596;28;20029;-67
2023/09/19 13:56:28;;;;;;;3.47;3.17;;;;;;;;;;5052299;28;20018;-67
2023/09/19 13:58:53;;;;;;;3.90;2.92;;;;;;;;;;4972299;28;20358;-67
2023/09/19 14:01:20;;;;;;;2.83;2.67;;;;;;;;;;5039464;28;20042;-67
2023/09/19 14:03:46;;;;;;;3.53;2.80;;;;;;;;;;4972897;28;20034;-67
2023/09/19 14:06:13;;;;;;;3.00;2.80;;;;;;;;;;5039384;28;20076;-67
2023/09/19 14:08:38;;;;;;;3.88;2.72;;;;;;;;;;5031198;28;20031;-67
2023/09/19 14:11:07;;;;;;;3.33;2.67;;;;;;;;;;4957395;28;20357;-67
2023/09/19 14:13:33;;;;;;;2.75;2.55;;;;;;;;;;5039248;28;20027;-63
2023/09/19 14:16:10;;;;;;;3.47;2.70;;;;;;;;;;5039214;28;20468;-67
2023/09/19 14:18:35;;;;;;;3.00;2.75;;;;;;;;;;4966795;28;20087;-68
2023/09/19 14:21:04;;;;;;;5.10;2.70;;;;;;;;;;5005397;28;20027;-64
2023/09/19 14:23:34;;;;;;;3.53;2.60;;;;;;;;;;5015955;28;20050;-64
2023/09/19 14:26:01;;;;;;;4.13;2.88;;;;;;;;;;5022101;28;20046;-65
2023/09/19 14:28:26;;;;;;;3.15;2.58;;;;;;;;;;4972304;28;20447;-68
2023/09/19 14:30:51;;;;;;;5.38;2.85;;;;;;;;;;4971457;28;20205;-68
2023/09/19 14:33:17;;;;;;;2.60;2.50;;;;;;;;;;4971792;28;20037;-68
2023/09/19 14:35:42;;;;;;;3.28;2.83;;;;;;;;;;4972587;28;20038;-64
2023/09/19 14:38:08;;;;;;;3.17;2.88;;;;;;;;;;4971998;28;20114;-64
2023/09/19 14:40:33;;;;;;;2.65;2.50;;;;;;;;;;4969728;28;20042;-60
2023/09/19 14:42:59;;;;;;;2.80;2.60;;;;;;;;;;4972367;28;20074;-63
2023/09/19 14:45:25;;;;;;;2.90;2.63;;;;;;;;;;4992961;28;20031;-62
2023/09/19 14:47:54;;;;;;;3.67;3.08;;;;;;;;;;4971543;28;20034;-59
2023/09/19 14:50:19;;;;;;;2.72;2.47;;;;;;;;;;4971668;28;20019;-62
2023/09/19 14:52:46;;;;;;;5.03;2.78;;;;;;;;;;4972151;28;20096;-59